Terminal Aerodrome Forecast
Issued by NWS

Home | Current Version | Previous Version | Text Only | Print | Product List | Glossary On
Versions: 1 2 3 4 5 6 7 8 9 10 11 12
000
FTUS45 KGJT 292337
TAFVEL
TAF
KVEL 292337Z 3000/3024 33004KT P6SM SCT060
     FM300500 31006KT P6SM FEW100
     FM301300 VRB03KT P6SM SCT250
     FM302000 33005KT P6SM SCT060=

USA.gov is the U.S. government's official web portal to all federal, state and local government web resources and services.